sensor_id;sensor_type;location;lat;lon;timestamp;pressure;altitude;pressure_sealevel;temperature;humidity
32456;BME280;18912;43.270;27.942;2024-01-11T00:00:56;99170.94;;;0.07;47.75
32456;BME280;18912;43.270;27.942;2024-01-11T00:03:24;99166.63;;;0.17;47.38
32456;BME280;18912;43.270;27.942;2024-01-11T00:05:49;99169.31;;;0.28;47.42
32456;BME280;18912;43.270;27.942;2024-01-11T00:08:15;99159.13;;;0.11;47.61
32456;BME280;18912;43.270;27.942;2024-01-11T00:10:40;99168.56;;;0.15;47.97
32456;BME280;18912;43.270;27.942;2024-01-11T00:13:06;99160.13;;;0.21;47.26
32456;BME280;18912;43.270;27.942;2024-01-11T00:15:31;99171.19;;;0.04;47.79
32456;BME280;18912;43.270;27.942;2024-01-11T00:17:57;99161.66;;;0.12;48.07
32456;BME280;18912;43.270;27.942;2024-01-11T00:20:22;99165.78;;;0.16;47.10
32456;BME280;18912;43.270;27.942;2024-01-11T00:22:47;99160.88;;;0.34;46.83
32456;BME280;18912;43.270;27.942;2024-01-11T00:25:13;99156.75;;;0.30;46.98
32456;BME280;18912;43.270;27.942;2024-01-11T00:27:39;99163.50;;;0.23;46.82
32456;BME280;18912;43.270;27.942;2024-01-11T00:30:05;99164.91;;;0.16;46.96
32456;BME280;18912;43.270;27.942;2024-01-11T00:32:31;99157.59;;;0.30;46.55
32456;BME280;18912;43.270;27.942;2024-01-11T00:34:56;99148.28;;;0.25;47.06
32456;BME280;18912;43.270;27.942;2024-01-11T00:37:22;99156.75;;;0.30;46.47
32456;BME280;18912;43.270;27.942;2024-01-11T00:39:47;99152.38;;;0.18;46.97
32456;BME280;18912;43.270;27.942;2024-01-11T00:42:13;99147.56;;;0.23;46.53
32456;BME280;18912;43.270;27.942;2024-01-11T00:44:38;99149.25;;;0.35;46.24
32456;BME280;18912;43.270;27.942;2024-01-11T00:47:03;99150.22;;;0.23;46.64
32456;BME280;18912;43.270;27.942;2024-01-11T00:49:29;99147.56;;;0.23;46.05
32456;BME280;18912;43.270;27.942;2024-01-11T00:51:54;99152.03;;;0.33;45.90
32456;BME280;18912;43.270;27.942;2024-01-11T00:54:20;99136.81;;;0.35;46.19
32456;BME280;18912;43.270;27.942;2024-01-11T00:56:45;99156.16;;;0.26;46.46
32456;BME280;18912;43.270;27.942;2024-01-11T00:59:11;99153.38;;;0.50;46.04
32456;BME280;18912;43.270;27.942;2024-01-11T01:01:36;99149.91;;;0.60;45.34
32456;BME280;18912;43.270;27.942;2024-01-11T01:04:02;99147.47;;;0.46;45.66
32456;BME280;18912;43.270;27.942;2024-01-11T01:06:27;99166.81;;;0.59;45.62
32456;BME280;18912;43.270;27.942;2024-01-11T01:08:54;99162.00;;;0.64;45.04
32456;BME280;18912;43.270;27.942;2024-01-11T01:11:19;99141.66;;;0.63;45.01
32456;BME280;18912;43.270;27.942;2024-01-11T01:13:46;99144.09;;;0.66;44.49
32456;BME280;18912;43.270;27.942;2024-01-11T01:16:11;99136.47;;;0.73;44.47
32456;BME280;18912;43.270;27.942;2024-01-11T01:18:37;99145.66;;;0.80;44.89
32456;BME280;18912;43.270;27.942;2024-01-11T01:21:02;99132.13;;;0.72;44.66
32456;BME280;18912;43.270;27.942;2024-01-11T01:23:28;99126.44;;;0.65;44.98
32456;BME280;18912;43.270;27.942;2024-01-11T01:25:53;99104.16;;;0.55;44.64
32456;BME280;18912;43.270;27.942;2024-01-11T01:28:19;99120.03;;;0.68;44.56
32456;BME280;18912;43.270;27.942;2024-01-11T01:30:44;99126.53;;;0.75;44.50
32456;BME280;18912;43.270;27.942;2024-01-11T01:33:10;99114.59;;;0.58;44.09
32456;BME280;18912;43.270;27.942;2024-01-11T01:35:35;99115.66;;;0.67;43.96
32456;BME280;18912;43.270;27.942;2024-01-11T01:38:02;99113.38;;;0.62;43.82
32456;BME280;18912;43.270;27.942;2024-01-11T01:40:30;99090.25;;;0.63;44.01
32456;BME280;18912;43.270;27.942;2024-01-11T01:42:59;99100.19;;;0.83;44.24
32456;BME280;18912;43.270;27.942;2024-01-11T01:45:27;99096.91;;;0.79;43.88
32456;BME280;18912;43.270;27.942;2024-01-11T01:47:53;99091.22;;;0.73;43.96
32456;BME280;18912;43.270;27.942;2024-01-11T01:50:19;99082.78;;;0.68;43.92
32456;BME280;18912;43.270;27.942;2024-01-11T01:52:46;99084.31;;;0.70;43.71
32456;BME280;18912;43.270;27.942;2024-01-11T01:55:12;99085.41;;;0.35;45.07
32456;BME280;18912;43.270;27.942;2024-01-11T01:57:40;99086.88;;;0.39;44.54
32456;BME280;18912;43.270;27.942;2024-01-11T02:00:08;99087.94;;;0.36;44.38
32456;BME280;18912;43.270;27.942;2024-01-11T02:02:36;99074.50;;;0.05;45.01
32456;BME280;18912;43.270;27.942;2024-01-11T02:05:02;99078.97;;;0.04;44.63
32456;BME280;18912;43.270;27.942;2024-01-11T02:07:28;99074.19;;;0.31;44.38
32456;BME280;18912;43.270;27.942;2024-01-11T02:09:54;99068.34;;;0.04;44.55
32456;BME280;18912;43.270;27.942;2024-01-11T02:12:20;99072.31;;;-0.13;44.74
32456;BME280;18912;43.270;27.942;2024-01-11T02:14:45;99066.03;;;-0.12;45.01
32456;BME280;18912;43.270;27.942;2024-01-11T02:17:11;99066.50;;;-0.29;45.14
32456;BME280;18912;43.270;27.942;2024-01-11T02:19:36;99067.00;;;-0.13;44.43
32456;BME280;18912;43.270;27.942;2024-01-11T02:22:10;99063.38;;;-0.12;44.66
32456;BME280;18912;43.270;27.942;2024-01-11T02:24:38;99061.47;;;-0.10;44.50
32456;BME280;18912;43.270;27.942;2024-01-11T02:27:05;99054.84;;;0.07;43.98
32456;BME280;18912;43.270;27.942;2024-01-11T02:29:31;99051.91;;;-0.01;43.84
32456;BME280;18912;43.270;27.942;2024-01-11T02:31:58;99033.50;;;-0.15;43.90
32456;BME280;18912;43.270;27.942;2024-01-11T02:34:27;99053.84;;;0.08;43.59
32456;BME280;18912;43.270;27.942;2024-01-11T02:36:56;99039.59;;;-0.02;43.97
32456;BME280;18912;43.270;27.942;2024-01-11T02:39:23;99043.34;;;0.07;43.53
32456;BME280;18912;43.270;27.942;2024-01-11T02:41:50;99041.41;;;-0.14;43.94
32456;BME280;18912;43.270;27.942;2024-01-11T02:44:16;99043.59;;;0.04;43.68
32456;BME280;18912;43.270;27.942;2024-01-11T02:46:42;99047.91;;;-0.07;44.12
32456;BME280;18912;43.270;27.942;2024-01-11T02:49:08;99035.13;;;0.10;43.69
32456;BME280;18912;43.270;27.942;2024-01-11T02:51:33;99035.84;;;0.12;43.64
32456;BME280;18912;43.270;27.942;2024-01-11T02:53:59;99031.97;;;-0.07;43.68
32456;BME280;18912;43.270;27.942;2024-01-11T02:56:24;99018.94;;;0.13;43.75
32456;BME280;18912;43.270;27.942;2024-01-11T02:58:50;99024.00;;;0.16;43.53
32456;BME280;18912;43.270;27.942;2024-01-11T03:01:16;99022.56;;;0.34;43.64
32456;BME280;18912;43.270;27.942;2024-01-11T03:03:41;99014.81;;;0.31;43.25
32456;BME280;18912;43.270;27.942;2024-01-11T03:06:07;99020.00;;;-0.01;43.67
32456;BME280;18912;43.270;27.942;2024-01-11T03:08:33;99024.59;;;0.19;43.56
32456;BME280;18912;43.270;27.942;2024-01-11T03:10:58;99018.94;;;0.35;43.56
32456;BME280;18912;43.270;27.942;2024-01-11T03:13:24;99026.44;;;0.41;43.13
32456;BME280;18912;43.270;27.942;2024-01-11T03:15:50;99026.06;;;0.56;42.73
32456;BME280;18912;43.270;27.942;2024-01-11T03:18:15;99022.19;;;0.60;42.71
32456;BME280;18912;43.270;27.942;2024-01-11T03:20:41;99017.59;;;0.51;42.55
32456;BME280;18912;43.270;27.942;2024-01-11T03:23:07;99020.84;;;0.66;42.55
32456;BME280;18912;43.270;27.942;2024-01-11T03:25:32;99003.53;;;0.71;42.50
32456;BME280;18912;43.270;27.942;2024-01-11T03:27:58;99003.94;;;0.45;42.97
32456;BME280;18912;43.270;27.942;2024-01-11T03:30:26;99009.63;;;0.51;42.33
32456;BME280;18912;43.270;27.942;2024-01-11T03:32:52;99005.59;;;0.68;42.39
32456;BME280;18912;43.270;27.942;2024-01-11T03:35:18;99007.06;;;0.72;42.40
32456;BME280;18912;43.270;27.942;2024-01-11T03:37:44;98996.88;;;0.77;42.20
32456;BME280;18912;43.270;27.942;2024-01-11T03:40:09;99006.31;;;0.70;42.15
32456;BME280;18912;43.270;27.942;2024-01-11T03:42:35;98997.50;;;0.58;42.83
32456;BME280;18912;43.270;27.942;2024-01-11T03:45:01;99000.03;;;0.60;42.00
32456;BME280;18912;43.270;27.942;2024-01-11T03:47:27;98992.19;;;0.58;42.57
32456;BME280;18912;43.270;27.942;2024-01-11T03:49:52;98998.97;;;0.62;42.39
32456;BME280;18912;43.270;27.942;2024-01-11T03:52:18;98991.94;;;0.61;42.27
32456;BME280;18912;43.270;27.942;2024-01-11T03:54:43;98988.09;;;0.43;42.57
32456;BME280;18912;43.270;27.942;2024-01-11T03:57:09;98973.22;;;0.52;43.13
32456;BME280;18912;43.270;27.942;2024-01-11T03:59:34;98980.97;;;0.33;43.32
32456;BME280;18912;43.270;27.942;2024-01-11T04:02:00;98978.69;;;0.39;43.31
32456;BME280;18912;43.270;27.942;2024-01-11T04:04:26;98969.78;;;0.61;42.78
32456;BME280;18912;43.270;27.942;2024-01-11T04:06:52;98970.69;;;0.39;43.91
32456;BME280;18912;43.270;27.942;2024-01-11T04:09:18;98965.16;;;0.20;43.71
32456;BME280;18912;43.270;27.942;2024-01-11T04:11:45;98973.88;;;0.22;44.17
32456;BME280;18912;43.270;27.942;2024-01-11T04:14:11;98962.03;;;0.26;43.61
32456;BME280;18912;43.270;27.942;2024-01-11T04:16:41;98967.34;;;0.15;44.19
32456;BME280;18912;43.270;27.942;2024-01-11T04:19:07;98963.34;;;-0.02;44.42
32456;BME280;18912;43.270;27.942;2024-01-11T04:21:33;98970.50;;;-0.02;44.20
32456;BME280;18912;43.270;27.942;2024-01-11T04:23:59;98973.16;;;-0.02;44.71
32456;BME280;18912;43.270;27.942;2024-01-11T04:26:25;98968.91;;;-0.16;45.28
32456;BME280;18912;43.270;27.942;2024-01-11T04:28:52;98963.25;;;0.00;44.37
32456;BME280;18912;43.270;27.942;2024-01-11T04:31:19;98956.59;;;0.06;44.50
32456;BME280;18912;43.270;27.942;2024-01-11T04:33:45;98946.69;;;-0.15;44.77
32456;BME280;18912;43.270;27.942;2024-01-11T04:36:11;98959.47;;;0.14;44.46
32456;BME280;18912;43.270;27.942;2024-01-11T04:38:37;98955.38;;;-0.24;44.72
32456;BME280;18912;43.270;27.942;2024-01-11T04:41:12;98967.09;;;-0.04;45.33
32456;BME280;18912;43.270;27.942;2024-01-11T04:43:38;98975.41;;;0.14;44.85
32456;BME280;18912;43.270;27.942;2024-01-11T04:46:25;98965.00;;;0.33;44.18
32456;BME280;18912;43.270;27.942;2024-01-11T04:48:50;98958.03;;;0.10;44.87
32456;BME280;18912;43.270;27.942;2024-01-11T04:51:17;98968.06;;;0.28;44.61
32456;BME280;18912;43.270;27.942;2024-01-11T04:53:44;98966.22;;;0.40;44.44
32456;BME280;18912;43.270;27.942;2024-01-11T04:56:11;98965.63;;;0.47;44.44
32456;BME280;18912;43.270;27.942;2024-01-11T04:58:40;98971.75;;;0.59;44.67
32456;BME280;18912;43.270;27.942;2024-01-11T05:01:07;98973.06;;;0.64;44.58
32456;BME280;18912;43.270;27.942;2024-01-11T05:03:33;98963.75;;;0.70;44.08
32456;BME280;18912;43.270;27.942;2024-01-11T05:05:59;98969.16;;;0.79;43.91
32456;BME280;18912;43.270;27.942;2024-01-11T05:08:28;98964.84;;;0.67;43.84
32456;BME280;18912;43.270;27.942;2024-01-11T05:10:54;98958.31;;;0.60;44.43
32456;BME280;18912;43.270;27.942;2024-01-11T05:13:19;98970.78;;;0.60;43.95
32456;BME280;18912;43.270;27.942;2024-01-11T05:15:45;98962.19;;;0.56;43.94
32456;BME280;18912;43.270;27.942;2024-01-11T05:18:11;98961.94;;;0.59;44.05
32456;BME280;18912;43.270;27.942;2024-01-11T05:20:37;98965.00;;;0.44;44.25
32456;BME280;18912;43.270;27.942;2024-01-11T05:23:03;98962.09;;;0.47;44.65
32456;BME280;18912;43.270;27.942;2024-01-11T05:25:30;98961.63;;;0.42;44.79
32456;BME280;18912;43.270;27.942;2024-01-11T05:28:03;98956.31;;;0.42;44.85
32456;BME280;18912;43.270;27.942;2024-01-11T05:30:29;98964.75;;;0.47;44.53
32456;BME280;18912;43.270;27.942;2024-01-11T05:32:55;98950.63;;;0.35;44.55
32456;BME280;18912;43.270;27.942;2024-01-11T05:35:22;98933.34;;;0.41;44.33
32456;BME280;18912;43.270;27.942;2024-01-11T05:37:50;98943.72;;;0.55;44.53
32456;BME280;18912;43.270;27.942;2024-01-11T05:40:15;98942.97;;;0.64;44.76
32456;BME280;18912;43.270;27.942;2024-01-11T05:42:41;98937.31;;;0.78;44.19
32456;BME280;18912;43.270;27.942;2024-01-11T05:45:07;98925.50;;;0.71;44.15
32456;BME280;18912;43.270;27.942;2024-01-11T05:47:33;98934.16;;;0.52;44.25
32456;BME280;18912;43.270;27.942;2024-01-11T05:49:58;98933.00;;;0.77;43.78
32456;BME280;18912;43.270;27.942;2024-01-11T05:52:24;98930.06;;;0.91;43.52
32456;BME280;18912;43.270;27.942;2024-01-11T05:54:50;98923.94;;;1.00;43.19
32456;BME280;18912;43.270;27.942;2024-01-11T05:57:15;98941.16;;;0.96;43.22
32456;BME280;18912;43.270;27.942;2024-01-11T05:59:45;98939.91;;;1.00;42.75
32456;BME280;18912;43.270;27.942;2024-01-11T06:02:11;98934.09;;;1.06;42.46
32456;BME280;18912;43.270;27.942;2024-01-11T06:04:37;98938.06;;;1.32;42.58
32456;BME280;18912;43.270;27.942;2024-01-11T06:07:03;98921.34;;;1.51;41.67
32456;BME280;18912;43.270;27.942;2024-01-11T06:09:28;98934.69;;;1.51;41.54
32456;BME280;18912;43.270;27.942;2024-01-11T06:11:54;98931.41;;;1.68;41.27
32456;BME280;18912;43.270;27.942;2024-01-11T06:14:20;98927.88;;;1.88;40.86
32456;BME280;18912;43.270;27.942;2024-01-11T06:16:45;98933.22;;;1.98;40.38
32456;BME280;18912;43.270;27.942;2024-01-11T06:19:11;98927.81;;;2.48;39.60
32456;BME280;18912;43.270;27.942;2024-01-11T06:21:36;98917.44;;;3.12;38.99
32456;BME280;18912;43.270;27.942;2024-01-11T06:24:02;98918.72;;;3.18;38.57
32456;BME280;18912;43.270;27.942;2024-01-11T06:26:29;98916.81;;;3.66;37.94
32456;BME280;18912;43.270;27.942;2024-01-11T06:28:55;98913.28;;;4.12;36.72
32456;BME280;18912;43.270;27.942;2024-01-11T06:31:21;98913.47;;;4.01;36.78
32456;BME280;18912;43.270;27.942;2024-01-11T06:33:46;98906.78;;;4.14;36.61
32456;BME280;18912;43.270;27.942;2024-01-11T06:36:12;98903.56;;;4.11;35.79
32456;BME280;18912;43.270;27.942;2024-01-11T06:38:38;98913.38;;;4.92;34.76
32456;BME280;18912;43.270;27.942;2024-01-11T06:41:03;98911.31;;;4.86;34.57
32456;BME280;18912;43.270;27.942;2024-01-11T06:43:29;98919.78;;;6.03;33.39
32456;BME280;18912;43.270;27.942;2024-01-11T06:45:55;98912.28;;;7.22;32.41
32456;BME280;18912;43.270;27.942;2024-01-11T06:48:20;98913.06;;;8.66;30.27
32456;BME280;18912;43.270;27.942;2024-01-11T06:50:46;98912.66;;;9.07;28.79
32456;BME280;18912;43.270;27.942;2024-01-11T06:53:12;98918.00;;;8.54;28.90
32456;BME280;18912;43.270;27.942;2024-01-11T06:55:37;98917.88;;;7.36;29.84
32456;BME280;18912;43.270;27.942;2024-01-11T06:58:03;98919.22;;;6.58;30.76
32456;BME280;18912;43.270;27.942;2024-01-11T07:00:29;98906.91;;;6.06;31.33
32456;BME280;18912;43.270;27.942;2024-01-11T07:02:55;98913.94;;;5.82;31.96
32456;BME280;18912;43.270;27.942;2024-01-11T07:05:20;98919.25;;;5.30;32.39
32456;BME280;18912;43.270;27.942;2024-01-11T07:07:46;98902.19;;;5.31;32.15
32456;BME280;18912;43.270;27.942;2024-01-11T07:10:12;98895.97;;;5.31;32.30
32456;BME280;18912;43.270;27.942;2024-01-11T07:12:38;98902.59;;;5.62;31.91
32456;BME280;18912;43.270;27.942;2024-01-11T07:15:04;98902.13;;;5.92;31.63
32456;BME280;18912;43.270;27.942;2024-01-11T07:17:30;98902.34;;;6.32;30.97
32456;BME280;18912;43.270;27.942;2024-01-11T07:19:56;98892.28;;;7.00;30.61
32456;BME280;18912;43.270;27.942;2024-01-11T07:22:21;98879.41;;;8.54;28.97
32456;BME280;18912;43.270;27.942;2024-01-11T07:24:47;98888.34;;;9.53;27.70
32456;BME280;18912;43.270;27.942;2024-01-11T07:27:12;98895.63;;;10.62;26.83
32456;BME280;18912;43.270;27.942;2024-01-11T07:29:38;98884.13;;;10.89;25.99
32456;BME280;18912;43.270;27.942;2024-01-11T07:32:03;98881.69;;;11.79;25.16
32456;BME280;18912;43.270;27.942;2024-01-11T07:34:29;98881.22;;;12.31;24.48
32456;BME280;18912;43.270;27.942;2024-01-11T07:36:55;98885.78;;;13.11;23.88
32456;BME280;18912;43.270;27.942;2024-01-11T07:39:22;98885.19;;;13.36;23.52
32456;BME280;18912;43.270;27.942;2024-01-11T07:41:50;98883.16;;;12.90;24.11
32456;BME280;18912;43.270;27.942;2024-01-11T07:44:16;98879.41;;;12.44;23.51
32456;BME280;18912;43.270;27.942;2024-01-11T07:46:42;98872.50;;;10.74;24.92
32456;BME280;18912;43.270;27.942;2024-01-11T07:49:08;98876.09;;;10.81;25.08
32456;BME280;18912;43.270;27.942;2024-01-11T07:51:33;98870.31;;;11.41;24.71
32456;BME280;18912;43.270;27.942;2024-01-11T07:54:03;98843.28;;;10.84;24.28
32456;BME280;18912;43.270;27.942;2024-01-11T07:56:30;98865.50;;;11.64;24.53
32456;BME280;18912;43.270;27.942;2024-01-11T07:58:56;98875.25;;;12.42;23.92
32456;BME280;18912;43.270;27.942;2024-01-11T08:01:22;98868.22;;;13.07;23.37
32456;BME280;18912;43.270;27.942;2024-01-11T08:03:47;98864.03;;;13.05;22.71
32456;BME280;18912;43.270;27.942;2024-01-11T08:06:13;98856.06;;;12.97;22.28
32456;BME280;18912;43.270;27.942;2024-01-11T08:08:39;98847.97;;;13.10;22.66
32456;BME280;18912;43.270;27.942;2024-01-11T08:11:07;98870.34;;;14.49;21.99
32456;BME280;18912;43.270;27.942;2024-01-11T08:13:33;98857.25;;;14.71;21.54
32456;BME280;18912;43.270;27.942;2024-01-11T08:16:01;98860.53;;;14.22;21.41
32456;BME280;18912;43.270;27.942;2024-01-11T08:18:29;98853.66;;;14.13;21.86
32456;BME280;18912;43.270;27.942;2024-01-11T08:20:55;98853.69;;;13.80;21.95
32456;BME280;18912;43.270;27.942;2024-01-11T08:23:21;98846.31;;;13.16;22.20
32456;BME280;18912;43.270;27.942;2024-01-11T08:25:46;98836.31;;;12.15;22.63
32456;BME280;18912;43.270;27.942;2024-01-11T08:28:12;98843.22;;;12.24;22.99
32456;BME280;18912;43.270;27.942;2024-01-11T08:30:38;98842.84;;;12.74;22.57
32456;BME280;18912;43.270;27.942;2024-01-11T08:33:03;98829.00;;;13.23;22.14
32456;BME280;18912;43.270;27.942;2024-01-11T08:35:29;98844.47;;;12.62;22.43
32456;BME280;18912;43.270;27.942;2024-01-11T08:37:56;98822.41;;;12.31;23.24
32456;BME280;18912;43.270;27.942;2024-01-11T08:40:21;98827.13;;;11.61;23.39
32456;BME280;18912;43.270;27.942;2024-01-11T08:42:47;98820.19;;;11.52;23.83
32456;BME280;18912;43.270;27.942;2024-01-11T08:45:13;98813.34;;;11.56;23.73
32456;BME280;18912;43.270;27.942;2024-01-11T08:47:46;98802.53;;;11.07;24.17
32456;BME280;18912;43.270;27.942;2024-01-11T08:50:13;98801.00;;;10.98;24.68
32456;BME280;18912;43.270;27.942;2024-01-11T08:52:39;98791.84;;;11.48;24.04
32456;BME280;18912;43.270;27.942;2024-01-11T08:55:05;98793.75;;;11.75;23.97
32456;BME280;18912;43.270;27.942;2024-01-11T08:57:31;98793.91;;;12.01;23.41
32456;BME280;18912;43.270;27.942;2024-01-11T08:59:57;98779.22;;;12.23;23.69
32456;BME280;18912;43.270;27.942;2024-01-11T09:02:22;98765.56;;;12.03;23.67
32456;BME280;18912;43.270;27.942;2024-01-11T09:04:48;98765.34;;;12.46;23.61
32456;BME280;18912;43.270;27.942;2024-01-11T09:07:14;98761.97;;;13.37;23.19
32456;BME280;18912;43.270;27.942;2024-01-11T09:09:40;98768.34;;;13.94;22.82
32456;BME280;18912;43.270;27.942;2024-01-11T09:12:06;98755.06;;;14.81;22.20
32456;BME280;18912;43.270;27.942;2024-01-11T09:14:32;98745.16;;;15.18;21.33
32456;BME280;18912;43.270;27.942;2024-01-11T09:16:58;98741.78;;;15.72;20.20
32456;BME280;18912;43.270;27.942;2024-01-11T09:19:23;98745.75;;;15.94;20.50
32456;BME280;18912;43.270;27.942;2024-01-11T09:21:49;98734.00;;;16.30;20.69
32456;BME280;18912;43.270;27.942;2024-01-11T09:24:15;98734.72;;;17.14;19.85
32456;BME280;18912;43.270;27.942;2024-01-11T09:26:40;98730.91;;;17.56;20.09
32456;BME280;18912;43.270;27.942;2024-01-11T09:29:06;98725.03;;;17.30;19.62
32456;BME280;18912;43.270;27.942;2024-01-11T09:31:32;98719.38;;;16.24;20.33
32456;BME280;18912;43.270;27.942;2024-01-11T09:33:57;98716.19;;;15.73;20.76
32456;BME280;18912;43.270;27.942;2024-01-11T09:36:23;98713.28;;;14.63;21.42
32456;BME280;18912;43.270;27.942;2024-01-11T09:38:48;98711.03;;;14.60;21.78
32456;BME280;18912;43.270;27.942;2024-01-11T09:41:14;98695.91;;;15.20;21.94
32456;BME280;18912;43.270;27.942;2024-01-11T09:43:41;98698.88;;;15.43;21.64
32456;BME280;18912;43.270;27.942;2024-01-11T09:46:07;98689.47;;;16.18;21.02
32456;BME280;18912;43.270;27.942;2024-01-11T09:48:34;98698.38;;;17.14;20.26
32456;BME280;18912;43.270;27.942;2024-01-11T09:51:04;98683.91;;;16.72;20.14
32456;BME280;18912;43.270;27.942;2024-01-11T09:53:32;98679.59;;;16.35;20.71
32456;BME280;18912;43.270;27.942;2024-01-11T09:56:01;98676.69;;;15.82;20.51
32456;BME280;18912;43.270;27.942;2024-01-11T09:58:30;98676.53;;;15.34;21.16
32456;BME280;18912;43.270;27.942;2024-01-11T10:00:56;98668.56;;;15.57;21.66
32456;BME280;18912;43.270;27.942;2024-01-11T10:03:24;98666.94;;;16.22;20.92
32456;BME280;18912;43.270;27.942;2024-01-11T10:05:50;98664.66;;;16.37;21.22
32456;BME280;18912;43.270;27.942;2024-01-11T10:08:19;98643.69;;;16.67;20.99
32456;BME280;18912;43.270;27.942;2024-01-11T10:10:47;98651.50;;;16.46;21.86
32456;BME280;18912;43.270;27.942;2024-01-11T10:13:14;98648.88;;;17.33;20.78
32456;BME280;18912;43.270;27.942;2024-01-11T10:15:39;98636.50;;;17.89;20.48
32456;BME280;18912;43.270;27.942;2024-01-11T10:18:05;98640.09;;;18.17;20.58
32456;BME280;18912;43.270;27.942;2024-01-11T10:20:31;98633.13;;;18.38;20.26
32456;BME280;18912;43.270;27.942;2024-01-11T10:22:57;98638.28;;;18.23;20.38
32456;BME280;18912;43.270;27.942;2024-01-11T10:25:23;98621.72;;;18.29;20.36
32456;BME280;18912;43.270;27.942;2024-01-11T10:27:49;98628.22;;;18.40;20.78
32456;BME280;18912;43.270;27.942;2024-01-11T10:30:16;98617.66;;;18.32;20.72
32456;BME280;18912;43.270;27.942;2024-01-11T10:32:45;98599.91;;;18.46;20.21
32456;BME280;18912;43.270;27.942;2024-01-11T10:35:11;98603.44;;;18.18;20.50
32456;BME280;18912;43.270;27.942;2024-01-11T10:37:37;98605.25;;;17.27;21.15
32456;BME280;18912;43.270;27.942;2024-01-11T10:40:08;98590.75;;;17.61;21.02
32456;BME280;18912;43.270;27.942;2024-01-11T10:42:43;98584.69;;;18.10;20.33
32456;BME280;18912;43.270;27.942;2024-01-11T10:45:16;98577.69;;;16.70;21.05
32456;BME280;18912;43.270;27.942;2024-01-11T10:47:53;98579.84;;;16.80;21.31
32456;BME280;18912;43.270;27.942;2024-01-11T10:50:22;98570.94;;;16.43;21.57
32456;BME280;18912;43.270;27.942;2024-01-11T10:52:57;98571.53;;;16.75;21.28
32456;BME280;18912;43.270;27.942;2024-01-11T10:55:31;98553.34;;;16.57;21.10
32456;BME280;18912;43.270;27.942;2024-01-11T10:57:58;98553.78;;;15.83;21.59
32456;BME280;18912;43.270;27.942;2024-01-11T11:00:26;98539.81;;;16.21;21.29
32456;BME280;18912;43.270;27.942;2024-01-11T11:02:53;98540.75;;;16.15;21.16
32456;BME280;18912;43.270;27.942;2024-01-11T11:05:21;98522.84;;;16.60;20.62
32456;BME280;18912;43.270;27.942;2024-01-11T11:07:51;98528.06;;;17.20;21.19
32456;BME280;18912;43.270;27.942;2024-01-11T11:10:21;98516.25;;;17.42;20.32
32456;BME280;18912;43.270;27.942;2024-01-11T11:12:48;98520.19;;;17.86;19.90
32456;BME280;18912;43.270;27.942;2024-01-11T11:15:14;98519.19;;;18.04;20.23
32456;BME280;18912;43.270;27.942;2024-01-11T11:17:41;98512.06;;;18.47;19.60
32456;BME280;18912;43.270;27.942;2024-01-11T11:20:08;98516.41;;;18.32;19.58
32456;BME280;18912;43.270;27.942;2024-01-11T11:22:35;98508.34;;;17.06;20.12
32456;BME280;18912;43.270;27.942;2024-01-11T11:25:08;98506.81;;;16.11;21.44
32456;BME280;18912;43.270;27.942;2024-01-11T11:27:34;98493.06;;;16.82;21.49
32456;BME280;18912;43.270;27.942;2024-01-11T11:30:00;98503.19;;;16.29;22.12
32456;BME280;18912;43.270;27.942;2024-01-11T11:32:36;98498.63;;;15.34;23.55
32456;BME280;18912;43.270;27.942;2024-01-11T11:35:02;98488.34;;;14.81;24.19
32456;BME280;18912;43.270;27.942;2024-01-11T11:37:29;98488.06;;;14.65;24.37
32456;BME280;18912;43.270;27.942;2024-01-11T11:39:55;98467.47;;;14.75;24.84
32456;BME280;18912;43.270;27.942;2024-01-11T11:42:23;98470.41;;;15.10;24.43
32456;BME280;18912;43.270;27.942;2024-01-11T11:44:51;98480.47;;;14.24;25.43
32456;BME280;18912;43.270;27.942;2024-01-11T11:47:21;98478.56;;;14.00;25.58
32456;BME280;18912;43.270;27.942;2024-01-11T11:50:06;98460.94;;;13.47;27.86
32456;BME280;18912;43.270;27.942;2024-01-11T11:52:33;98461.09;;;13.14;29.47
32456;BME280;18912;43.270;27.942;2024-01-11T11:55:02;98442.31;;;12.99;28.98
32456;BME280;18912;43.270;27.942;2024-01-11T11:57:29;98446.13;;;12.85;29.00
32456;BME280;18912;43.270;27.942;2024-01-11T11:59:58;98449.41;;;13.00;29.30
32456;BME280;18912;43.270;27.942;2024-01-11T12:02:31;98440.34;;;12.62;30.02
32456;BME280;18912;43.270;27.942;2024-01-11T12:04:57;98416.63;;;12.12;30.21
32456;BME280;18912;43.270;27.942;2024-01-11T12:07:23;98439.78;;;11.82;29.89
32456;BME280;18912;43.270;27.942;2024-01-11T12:09:50;98435.00;;;12.23;30.26
32456;BME280;18912;43.270;27.942;2024-01-11T12:12:16;98434.56;;;12.19;30.07
32456;BME280;18912;43.270;27.942;2024-01-11T12:14:43;98432.47;;;12.21;30.41
32456;BME280;18912;43.270;27.942;2024-01-11T12:17:09;98427.91;;;12.09;30.63
32456;BME280;18912;43.270;27.942;2024-01-11T12:19:35;98436.66;;;11.72;30.86
32456;BME280;18912;43.270;27.942;2024-01-11T12:22:00;98427.66;;;10.91;31.83
32456;BME280;18912;43.270;27.942;2024-01-11T12:24:27;98422.56;;;10.75;32.35
32456;BME280;18912;43.270;27.942;2024-01-11T12:26:52;98430.19;;;10.52;33.00
32456;BME280;18912;43.270;27.942;2024-01-11T12:29:23;98429.41;;;10.30;33.11
32456;BME280;18912;43.270;27.942;2024-01-11T12:31:50;98422.53;;;10.28;33.56
32456;BME280;18912;43.270;27.942;2024-01-11T12:34:16;98419.19;;;10.05;34.39
32456;BME280;18912;43.270;27.942;2024-01-11T12:36:42;98412.97;;;10.25;34.87
32456;BME280;18912;43.270;27.942;2024-01-11T12:39:08;98399.56;;;9.90;35.84
32456;BME280;18912;43.270;27.942;2024-01-11T12:41:35;98404.88;;;10.32;35.54
32456;BME280;18912;43.270;27.942;2024-01-11T12:44:01;98401.47;;;10.17;34.95
32456;BME280;18912;43.270;27.942;2024-01-11T12:46:28;98391.94;;;10.21;34.33
32456;BME280;18912;43.270;27.942;2024-01-11T12:48:53;98380.88;;;9.88;34.12
32456;BME280;18912;43.270;27.942;2024-01-11T12:51:20;98395.56;;;9.58;34.85